Time,TemperatureF,DewpointF,PressureIn,WindDirection,WindDirectionDegrees,WindSpeedMPH,WindSpeedGustMPH,Humidity,HourlyPrecipIn,Conditions,Clouds,dailyrainin,SoftwareType,DateUTC
2013-03-30 00:02:00,27.3,10.2,30.39,NNE,22,0.0,0.0,48,0.00,CLR,,0.00,WeatherDisplay:10.37,2013-03-30 05:02:00,
2013-03-30 00:07:00,27.1,10.0,30.39,NNE,22,0.0,0.0,48,0.00,CLR,,0.00,WeatherDisplay:10.37,2013-03-30 05:07:00,
2013-03-30 00:12:00,27.5,12.2,30.39,NNE,22,0.0,0.0,52,0.00,CLR,,0.00,WeatherDisplay:10.37,2013-03-30 05:12:00,
2013-03-30 00:17:00,27.3,12.0,30.39,NNE,22,0.0,0.0,52,0.00,CLR,,0.00,WeatherDisplay:10.37,2013-03-30 05:17:00,
2013-03-30 00:22:00,27.0,11.7,30.39,NNE,22,0.0,0.0,52,0.00,CLR,,0.00,WeatherDisplay:10.37,2013-03-30 05:22:00,
2013-03-30 00:27:00,26.8,11.0,30.39,NNE,22,0.0,0.0,51,0.00,CLR,,0.00,WeatherDisplay:10.37,2013-03-30 05:27:00,
2013-03-30 00:32:00,26.8,11.0,30.39,NNE,22,0.0,0.0,51,0.00,CLR,,0.00,WeatherDisplay:10.37,2013-03-30 05:32:00,
2013-03-30 00:37:00,26.8,11.5,30.39,NNE,22,0.0,0.0,52,0.00,CLR,,0.00,WeatherDisplay:10.37,2013-03-30 05:37:00,
2013-03-30 00:42:00,26.4,10.7,30.39,NNE,22,0.0,0.0,51,0.00,CLR,,0.00,WeatherDisplay:10.37,2013-03-30 05:42:00,
2013-03-30 00:47:00,26.1,10.4,30.38,NNE,22,0.0,0.0,51,0.00,CLR,,0.00,WeatherDisplay:10.37,2013-03-30 05:47:00,
2013-03-30 00:52:00,26.1,10.4,30.38,NNE,22,0.0,0.0,51,0.00,CLR,,0.00,WeatherDisplay:10.37,2013-03-30 05:52:00,
2013-03-30 00:57:00,26.4,10.7,30.39,NNE,22,0.0,0.0,51,0.00,CLR,,0.00,WeatherDisplay:10.37,2013-03-30 05:57:00,
2013-03-30 01:02:00,26.8,11.5,30.39,NNE,22,0.0,0.0,52,0.00,CLR,,0.00,WeatherDisplay:10.37,2013-03-30 06:02:00,
2013-03-30 01:07:00,26.8,11.9,30.39,NNE,22,0.0,0.0,53,0.00,CLR,,0.00,WeatherDisplay:10.37,2013-03-30 06:07:00,
2013-03-30 01:12:00,26.4,11.6,30.39,NNE,22,0.0,0.0,53,0.00,CLR,,0.00,WeatherDisplay:10.37,2013-03-30 06:12:00,
2013-03-30 01:17:00,25.9,11.1,30.39,NNE,22,0.0,0.0,53,0.00,CLR,,0.00,WeatherDisplay:10.37,2013-03-30 06:17:00,
2013-03-30 01:22:00,25.9,11.1,30.39,NNE,22,0.0,0.0,53,0.00,CLR,,0.00,WeatherDisplay:10.37,2013-03-30 06:22:00,
2013-03-30 01:27:00,25.9,11.1,30.39,NNE,22,0.0,0.0,53,0.00,CLR,,0.00,WeatherDisplay:10.37,2013-03-30 06:27:00,
2013-03-30 01:32:00,26.1,11.7,30.39,NNE,22,0.0,0.0,54,0.00,CLR,,0.00,WeatherDisplay:10.37,2013-03-30 06:32:00,
2013-03-30 01:37:00,26.4,12.8,30.39,NNE,22,0.0,0.0,56,0.00,CLR,,0.00,WeatherDisplay:10.37,2013-03-30 06:37:00,
2013-03-30 01:42:00,26.8,14.0,30.39,NNE,22,0.0,0.0,58,0.00,CLR,,0.00,WeatherDisplay:10.37,2013-03-30 06:42:00,
2013-03-30 01:47:00,26.8,14.4,30.39,NNE,22,0.0,0.0,59,0.00,CLR,,0.00,WeatherDisplay:10.37,2013-03-30 06:47:00,
2013-03-30 01:52:00,26.8,14.4,30.39,NNE,22,0.0,0.0,59,0.00,CLR,,0.00,WeatherDisplay:10.37,2013-03-30 06:52:00,
2013-03-30 01:57:00,26.8,14.4,30.39,NNE,22,0.0,0.0,59,0.00,CLR,,0.00,WeatherDisplay:10.37,2013-03-30 06:57:00,
2013-03-30 02:02:00,25.7,13.3,30.39,NNE,22,0.0,0.0,59,0.00,CLR,,0.00,WeatherDisplay:10.37,2013-03-30 07:02:00,
2013-03-30 02:07:00,25.9,13.5,30.39,NNE,22,0.0,0.0,59,0.00,CLR,,0.00,WeatherDisplay:10.37,2013-03-30 07:07:00,
2013-03-30 02:12:00,26.1,14.1,30.39,NNE,22,0.0,0.0,60,0.00,CLR,,0.00,WeatherDisplay:10.37,2013-03-30 07:12:00,
2013-03-30 02:17:00,26.1,14.1,30.39,NNE,22,0.0,0.0,60,0.00,CLR,,0.00,WeatherDisplay:10.37,2013-03-30 07:17:00,
2013-03-30 02:22:00,26.4,14.4,30.39,NNE,22,0.0,0.0,60,0.00,CLR,,0.00,WeatherDisplay:10.37,2013-03-30 07:22:00,
2013-03-30 02:27:00,26.2,14.6,30.38,NNE,22,0.0,0.0,61,0.00,CLR,,0.00,WeatherDisplay:10.37,2013-03-30 07:27:00,
2013-03-30 02:32:00,26.2,14.2,30.39,NNE,22,0.0,0.0,60,0.00,CLR,,0.00,WeatherDisplay:10.37,2013-03-30 07:32:00,
2013-03-30 02:37:00,26.2,14.2,30.39,NNE,22,0.0,0.0,60,0.00,CLR,,0.00,WeatherDisplay:10.37,2013-03-30 07:37:00,
2013-03-30 02:42:00,25.9,13.9,30.39,NNE,22,0.0,0.0,60,0.00,CLR,,0.00,WeatherDisplay:10.37,2013-03-30 07:42:00,
2013-03-30 02:47:00,25.9,13.5,30.38,NNE,22,0.0,0.0,59,0.00,CLR,,0.00,WeatherDisplay:10.37,2013-03-30 07:47:00,
2013-03-30 02:52:00,25.0,12.7,30.38,NNE,22,0.0,0.0,59,0.00,CLR,,0.00,WeatherDisplay:10.37,2013-03-30 07:52:00,
2013-03-30 02:57:00,24.4,12.5,30.38,NNE,22,0.0,0.0,60,0.00,CLR,,0.00,WeatherDisplay:10.37,2013-03-30 07:57:00,
2013-03-30 03:02:00,24.6,12.7,30.37,NNE,22,0.0,0.0,60,0.00,CLR,,0.00,WeatherDisplay:10.37,2013-03-30 08:02:00,
2013-03-30 03:07:00,25.2,13.6,30.37,NNE,22,0.0,0.0,61,0.00,CLR,,0.00,WeatherDisplay:10.37,2013-03-30 08:07:00,
2013-03-30 03:12:00,25.3,14.1,30.37,NNE,22,0.0,0.0,62,0.00,CLR,,0.00,WeatherDisplay:10.37,2013-03-30 08:12:00,
2013-03-30 03:17:00,25.5,14.3,30.37,NNE,22,0.0,0.0,62,0.00,CLR,,0.00,WeatherDisplay:10.37,2013-03-30 08:17:00,
2013-03-30 03:22:00,26.1,14.8,30.37,NNE,22,0.0,0.0,62,0.00,CLR,,0.00,WeatherDisplay:10.37,2013-03-30 08:22:00,
2013-03-30 03:27:00,26.2,15.0,30.36,NNE,22,0.0,0.0,62,0.00,CLR,,0.00,WeatherDisplay:10.37,2013-03-30 08:27:00,
2013-03-30 03:32:00,26.2,15.3,30.36,NNE,22,0.0,0.0,63,0.00,CLR,,0.00,WeatherDisplay:10.37,2013-03-30 08:32:00,
2013-03-30 03:37:00,26.1,14.4,30.36,NNE,22,0.0,0.0,61,0.00,CLR,,0.00,WeatherDisplay:10.37,2013-03-30 08:37:00,
2013-03-30 03:42:00,25.9,14.3,30.36,NNE,22,0.0,0.0,61,0.00,CLR,,0.00,WeatherDisplay:10.37,2013-03-30 08:42:00,
2013-03-30 03:47:00,25.9,14.3,30.36,NNE,22,0.0,0.0,61,0.00,CLR,,0.00,WeatherDisplay:10.37,2013-03-30 08:47:00,
2013-03-30 03:52:00,25.9,14.3,30.35,NNE,22,0.0,0.0,61,0.00,CLR,,0.00,WeatherDisplay:10.37,2013-03-30 08:52:00,
2013-03-30 03:57:00,26.1,14.4,30.35,NNE,22,0.0,0.0,61,0.00,CLR,,0.00,WeatherDisplay:10.37,2013-03-30 08:57:00,
2013-03-30 04:02:00,26.2,14.6,30.35,NNE,22,0.0,0.0,61,0.00,CLR,,0.00,WeatherDisplay:10.37,2013-03-30 09:02:00,
2013-03-30 04:07:00,26.6,14.9,30.35,NNE,22,0.0,0.0,61,0.00,CLR,,0.00,WeatherDisplay:10.37,2013-03-30 09:07:00,
2013-03-30 04:12:00,26.8,15.1,30.36,NNE,22,0.0,0.0,61,0.00,CLR,,0.00,WeatherDisplay:10.37,2013-03-30 09:12:00,
2013-03-30 04:18:00,27.0,15.3,30.35,NNE,22,0.0,0.0,61,0.00,CLR,,0.00,WeatherDisplay:10.37,2013-03-30 09:18:00,
2013-03-30 04:23:00,27.1,15.1,30.36,NNE,22,0.0,0.0,60,0.00,CLR,,0.00,WeatherDisplay:10.37,2013-03-30 09:23:00,
2013-03-30 04:28:00,27.0,14.9,30.36,NNE,22,0.0,0.0,60,0.00,CLR,,0.00,WeatherDisplay:10.37,2013-03-30 09:28:00,
2013-03-30 04:33:00,26.8,14.7,30.36,NNE,22,0.0,0.0,60,0.00,CLR,,0.00,WeatherDisplay:10.37,2013-03-30 09:33:00,
2013-03-30 04:34:00,26.8,14.7,30.36,NNE,22,0.0,0.0,60,0.00,CLR,,0.00,WeatherDisplay:10.37,2013-03-30 09:34:00,
2013-03-30 04:39:00,26.8,14.7,30.36,NNE,22,0.0,0.0,60,0.00,CLR,,0.00,WeatherDisplay:10.37,2013-03-30 09:39:00,
2013-03-30 04:44:00,27.0,14.9,30.36,NNE,22,0.0,0.0,60,0.00,CLR,,0.00,WeatherDisplay:10.37,2013-03-30 09:44:00,
2013-03-30 04:49:00,27.3,15.2,30.36,NNE,22,0.0,0.0,60,0.00,CLR,,0.00,WeatherDisplay:10.37,2013-03-30 09:49:00,
2013-03-30 04:54:00,27.1,14.7,30.37,NNE,22,0.0,0.0,59,0.00,CLR,,0.00,WeatherDisplay:10.37,2013-03-30 09:54:00,
2013-03-30 05:00:00,27.0,14.5,30.37,NNE,22,0.0,0.0,59,0.00,CLR,,0.00,WeatherDisplay:10.37,2013-03-30 10:00:00,
2013-03-30 05:05:00,26.8,14.0,30.37,NNE,22,0.0,0.0,58,0.00,CLR,,0.00,WeatherDisplay:10.37,2013-03-30 10:05:00,
2013-03-30 05:10:00,26.4,13.6,30.37,NNE,22,0.0,0.0,58,0.00,CLR,,0.00,WeatherDisplay:10.37,2013-03-30 10:10:00,
2013-03-30 05:15:00,26.1,13.3,30.37,NNE,22,0.0,0.0,58,0.00,CLR,,0.00,WeatherDisplay:10.37,2013-03-30 10:15:00,
2013-03-30 05:20:00,25.9,13.1,30.37,NNE,22,0.0,0.0,58,0.00,CLR,,0.00,WeatherDisplay:10.37,2013-03-30 10:20:00,
2013-03-30 05:25:00,25.7,13.3,30.37,NNE,22,0.0,0.0,59,0.00,CLR,,0.00,WeatherDisplay:10.37,2013-03-30 10:25:00,
2013-03-30 05:30:00,25.7,13.3,30.37,NNE,22,0.0,0.0,59,0.00,CLR,,0.00,WeatherDisplay:10.37,2013-03-30 10:30:00,
2013-03-30 05:35:00,25.7,13.7,30.37,NNE,22,0.0,0.0,60,0.00,CLR,,0.00,WeatherDisplay:10.37,2013-03-30 10:35:00,
2013-03-30 05:40:00,26.1,14.1,30.37,NNE,22,0.0,0.0,60,0.00,CLR,,0.00,WeatherDisplay:10.37,2013-03-30 10:40:00,
2013-03-30 05:45:00,26.2,14.2,30.37,NNE,22,0.0,0.0,60,0.00,CLR,,0.00,WeatherDisplay:10.37,2013-03-30 10:45:00,
2013-03-30 05:50:00,26.1,14.1,30.37,NNE,22,0.0,0.0,60,0.00,CLR,,0.00,WeatherDisplay:10.37,2013-03-30 10:50:00,
2013-03-30 05:55:00,26.1,14.1,30.37,NNE,22,0.0,0.0,60,0.00,CLR,,0.00,WeatherDisplay:10.37,2013-03-30 10:55:00,
2013-03-30 06:00:00,26.1,14.1,30.37,NNE,22,0.0,0.0,60,0.00,CLR,,0.00,WeatherDisplay:10.37,2013-03-30 11:00:00,
2013-03-30 06:05:00,26.2,14.2,30.37,NNE,22,0.0,0.0,60,0.00,CLR,,0.00,WeatherDisplay:10.37,2013-03-30 11:05:00,
2013-03-30 06:10:00,26.1,14.1,30.37,NNE,22,0.0,0.0,60,0.00,CLR,,0.00,WeatherDisplay:10.37,2013-03-30 11:10:00,
2013-03-30 06:15:00,25.9,14.3,30.37,NNE,22,0.0,0.0,61,0.00,CLR,,0.00,WeatherDisplay:10.37,2013-03-30 11:15:00,
2013-03-30 06:20:00,25.9,14.3,30.36,NNE,22,0.0,0.0,61,0.00,CLR,,0.00,WeatherDisplay:10.37,2013-03-30 11:20:00,
2013-03-30 06:25:00,25.7,14.1,30.36,NNE,22,0.0,0.0,61,0.00,CLR,,0.00,WeatherDisplay:10.37,2013-03-30 11:25:00,
2013-03-30 06:30:00,26.1,14.4,30.36,NNE,22,0.0,0.0,61,0.00,CLR,,0.00,WeatherDisplay:10.37,2013-03-30 11:30:00,
2013-03-30 06:35:00,26.6,14.9,30.36,NNE,22,0.0,0.0,61,0.00,CLR,,0.00,WeatherDisplay:10.37,2013-03-30 11:35:00,
2013-03-30 06:40:00,26.8,15.1,30.36,NNE,22,0.0,0.0,61,0.00,CLR,,0.00,WeatherDisplay:10.37,2013-03-30 11:40:00,
2013-03-30 06:45:00,27.0,15.3,30.36,NNE,22,0.0,0.0,61,0.00,CLR,,0.00,WeatherDisplay:10.37,2013-03-30 11:45:00,
2013-03-30 06:50:00,27.3,15.6,30.36,NNE,22,0.0,0.0,61,0.00,CLR,,0.00,WeatherDisplay:10.37,2013-03-30 11:50:00,
2013-03-30 06:55:00,27.7,16.0,30.35,NNE,22,0.0,0.0,61,0.00,CLR,,0.00,WeatherDisplay:10.37,2013-03-30 11:55:00,
2013-03-30 07:00:00,28.6,16.4,30.35,ENE,68,0.0,0.0,60,0.00,CLR,,0.00,WeatherDisplay:10.37,2013-03-30 12:00:00,
2013-03-30 07:05:00,29.3,17.1,30.35,ENE,68,0.0,0.0,60,0.00,CLR,,0.00,WeatherDisplay:10.37,2013-03-30 12:05:00,
2013-03-30 07:10:00,30.2,18.0,30.35,ENE,68,0.0,0.0,60,0.00,CLR,,0.00,WeatherDisplay:10.37,2013-03-30 12:10:00,
2013-03-30 07:15:00,31.1,17.6,30.35,ENE,68,0.0,0.0,57,0.00,CLR,,0.00,WeatherDisplay:10.37,2013-03-30 12:15:00,
2013-03-30 07:20:00,31.6,17.7,30.35,ENE,68,0.0,0.0,56,0.00,CLR,,0.00,WeatherDisplay:10.37,2013-03-30 12:20:00,
2013-03-30 07:25:00,32.4,18.0,30.35,East,90,0.0,0.0,55,0.00,CLR,,0.00,WeatherDisplay:10.37,2013-03-30 12:25:00,
2013-03-30 07:30:00,32.7,17.5,30.35,ENE,68,0.0,0.0,53,0.00,CLR,,0.00,WeatherDisplay:10.37,2013-03-30 12:30:00,
2013-03-30 07:35:00,32.9,17.2,30.35,ENE,68,0.0,0.0,52,0.00,CLR,,0.00,WeatherDisplay:10.37,2013-03-30 12:35:00,
2013-03-30 07:40:00,33.4,17.7,30.35,East,90,0.0,0.0,52,0.00,CLR,,0.00,WeatherDisplay:10.37,2013-03-30 12:40:00,
2013-03-30 07:45:00,33.8,17.6,30.35,ESE,112,0.0,0.0,51,0.00,CLR,,0.00,WeatherDisplay:10.37,2013-03-30 12:45:00,
2013-03-30 07:50:00,34.2,17.9,30.35,East,90,0.0,0.0,51,0.00,CLR,,0.00,WeatherDisplay:10.37,2013-03-30 12:50:00,
2013-03-30 07:55:00,34.7,17.9,30.35,East,90,0.0,0.0,50,0.00,CLR,,0.00,WeatherDisplay:10.37,2013-03-30 12:55:00,
2013-03-30 08:00:00,35.2,18.0,30.35,ENE,68,2.3,2.3,49,0.00,CLR,,0.00,WeatherDisplay:10.37,2013-03-30 13:00:00,
2013-03-30 08:05:00,35.8,18.0,30.35,East,90,0.0,0.0,48,0.00,CLR,,0.00,WeatherDisplay:10.37,2013-03-30 13:05:00,
2013-03-30 08:10:00,36.7,18.8,30.35,SSE,158,0.0,0.0,48,0.00,CLR,,0.00,WeatherDisplay:10.37,2013-03-30 13:10:00,
2013-03-30 08:15:00,37.2,19.3,30.35,ENE,68,3.5,3.5,48,0.00,CLR,,0.00,WeatherDisplay:10.37,2013-03-30 13:15:00,
2013-03-30 08:20:00,37.8,19.8,30.35,ESE,112,0.0,0.0,48,0.00,CLR,,0.00,WeatherDisplay:10.37,2013-03-30 13:20:00,
2013-03-30 08:25:00,38.3,20.3,30.34,SE,135,0.0,0.0,48,0.00,CLR,,0.00,WeatherDisplay:10.37,2013-03-30 13:25:00,
2013-03-30 08:30:00,38.8,20.3,30.34,SSE,158,3.5,0.0,47,0.00,CLR,,0.00,WeatherDisplay:10.37,2013-03-30 13:30:00,
2013-03-30 08:35:00,39.6,21.0,30.34,SE,135,0.0,0.0,47,0.00,CLR,,0.00,WeatherDisplay:10.37,2013-03-30 13:35:00,
2013-03-30 08:40:00,40.6,22.0,30.34,SE,135,0.0,0.0,47,0.00,CLR,,0.00,WeatherDisplay:10.37,2013-03-30 13:40:00,
2013-03-30 08:45:00,41.5,22.8,30.34,SE,135,0.0,0.0,47,0.00,CLR,,0.00,WeatherDisplay:10.37,2013-03-30 13:45:00,
2013-03-30 08:50:00,42.3,22.9,30.34,SSE,158,4.6,5.1,46,0.00,CLR,,0.00,WeatherDisplay:10.37,2013-03-30 13:50:00,
2013-03-30 08:55:00,43.2,22.7,30.34,South,180,4.6,4.6,44,0.00,CLR,,0.00,WeatherDisplay:10.37,2013-03-30 13:55:00,
2013-03-30 09:00:00,43.7,23.2,30.34,SSE,164,3.0,7.0,44,0.00,CLR,,0.00,WeatherDisplay:10.37,2013-03-30 14:00:00,
2013-03-30 09:05:00,44.1,22.4,30.33,SSE,158,0.0,0.0,42,0.00,CLR,,0.00,WeatherDisplay:10.37,2013-03-30 14:05:00,
2013-03-30 09:10:00,44.8,23.1,30.33,South,171,7.0,7.0,42,0.00,CLR,,0.00,WeatherDisplay:10.37,2013-03-30 14:10:00,
2013-03-30 09:15:00,45.5,23.1,30.34,ESE,112,1.6,1.6,41,0.00,CLR,,0.00,WeatherDisplay:10.37,2013-03-30 14:15:00,
2013-03-30 09:20:00,46.0,23.6,30.33,South,180,1.2,1.6,41,0.00,CLR,,0.00,WeatherDisplay:10.37,2013-03-30 14:20:00,
2013-03-30 09:25:00,46.8,23.1,30.33,East,90,2.3,2.3,39,0.00,CLR,,0.00,WeatherDisplay:10.37,2013-03-30 14:25:00,
2013-03-30 09:30:00,47.3,23.6,30.33,SSE,158,0.0,0.0,39,0.00,CLR,,0.00,WeatherDisplay:10.37,2013-03-30 14:30:00,
2013-03-30 09:35:00,48.4,25.1,30.33,SSE,158,2.3,2.3,40,0.00,CLR,,0.00,WeatherDisplay:10.37,2013-03-30 14:35:00,
2013-03-30 09:40:00,48.9,25.6,30.32,SSE,158,0.0,0.0,40,0.00,CLR,,0.00,WeatherDisplay:10.37,2013-03-30 14:40:00,
2013-03-30 09:45:00,49.6,26.3,30.32,SSE,158,5.8,5.8,40,0.00,CLR,,0.00,WeatherDisplay:10.37,2013-03-30 14:45:00,
2013-03-30 09:50:00,50.4,26.9,30.32,SSE,158,3.8,3.8,40,0.00,CLR,,0.00,WeatherDisplay:10.37,2013-03-30 14:50:00,
2013-03-30 09:55:00,50.7,27.8,30.32,SSW,202,0.0,0.0,41,0.00,CLR,,0.00,WeatherDisplay:10.37,2013-03-30 14:55:00,
2013-03-30 10:00:00,50.9,28.0,30.32,SSE,158,3.6,3.6,41,0.00,CLR,,0.00,WeatherDisplay:10.37,2013-03-30 15:00:00,
2013-03-30 10:05:00,51.1,27.6,30.32,South,180,3.5,3.6,40,0.00,CLR,,0.00,WeatherDisplay:10.37,2013-03-30 15:05:00,
2013-03-30 10:10:00,51.1,27.6,30.31,SSW,202,4.9,4.9,40,0.00,CLR,,0.00,WeatherDisplay:10.37,2013-03-30 15:10:00,
2013-03-30 10:15:00,51.4,28.5,30.31,SSE,158,6.9,6.9,41,0.00,CLR,,0.00,WeatherDisplay:10.37,2013-03-30 15:15:00,
2013-03-30 10:20:00,52.2,29.7,30.31,South,180,6.9,6.9,42,0.00,CLR,,0.00,WeatherDisplay:10.37,2013-03-30 15:20:00,
2013-03-30 10:25:00,52.5,30.1,30.31,South,180,2.3,0.0,42,0.00,CLR,,0.00,WeatherDisplay:10.37,2013-03-30 15:25:00,
2013-03-30 10:30:00,53.2,30.7,30.30,SSE,158,2.7,2.7,42,0.00,CLR,,0.00,WeatherDisplay:10.37,2013-03-30 15:30:00,
2013-03-30 10:35:00,53.4,30.3,30.30,SSW,202,3.5,3.5,41,0.00,CLR,,0.00,WeatherDisplay:10.37,2013-03-30 15:35:00,
2013-03-30 10:40:00,53.8,30.6,30.30,SSW,202,9.2,9.2,41,0.00,CLR,,0.00,WeatherDisplay:10.37,2013-03-30 15:40:00,
2013-03-30 10:45:00,54.0,30.2,30.30,SSW,202,7.4,7.4,40,0.00,CLR,,0.00,WeatherDisplay:10.37,2013-03-30 15:45:00,
2013-03-30 10:50:00,54.3,30.5,30.29,SSW,202,8.1,8.1,40,0.00,CLR,,0.00,WeatherDisplay:10.37,2013-03-30 15:50:00,
2013-03-30 10:55:00,54.7,31.4,30.29,SSW,202,6.3,6.3,41,0.00,CLR,,0.00,WeatherDisplay:10.37,2013-03-30 15:55:00,
2013-03-30 11:01:00,55.0,31.1,30.29,SSE,158,7.8,7.8,40,0.00,CLR,,0.00,WeatherDisplay:10.37,2013-03-30 16:01:00,
2013-03-30 11:06:00,55.6,32.2,30.28,SSE,158,4.6,4.6,41,0.00,CLR,,0.00,WeatherDisplay:10.37,2013-03-30 16:06:00,
2013-03-30 11:11:00,55.8,31.2,30.28,SSE,158,3.6,3.6,39,0.00,CLR,,0.00,WeatherDisplay:10.37,2013-03-30 16:11:00,
2013-03-30 11:17:00,55.8,31.2,30.28,SE,135,6.9,6.9,39,0.00,CLR,,0.00,WeatherDisplay:10.37,2013-03-30 16:17:00,
2013-03-30 11:22:00,56.3,32.3,30.27,South,180,8.1,8.1,40,0.00,CLR,,0.00,WeatherDisplay:10.37,2013-03-30 16:22:00,
2013-03-30 11:27:00,56.3,31.0,30.27,SE,135,3.8,3.8,38,0.00,CLR,,0.00,WeatherDisplay:10.37,2013-03-30 16:27:00,
2013-03-30 11:32:00,56.8,31.5,30.27,South,180,7.2,7.2,38,0.00,CLR,,0.00,WeatherDisplay:10.37,2013-03-30 16:32:00,
2013-03-30 11:38:00,57.4,31.3,30.27,South,180,6.9,6.9,37,0.00,CLR,,0.00,WeatherDisplay:10.37,2013-03-30 16:38:00,
2013-03-30 11:43:00,57.6,31.5,30.27,ESE,112,6.0,6.0,37,0.00,CLR,,0.00,WeatherDisplay:10.37,2013-03-30 16:43:00,
2013-03-30 11:48:00,57.9,31.1,30.27,SW,225,8.1,8.1,36,0.00,CLR,,0.00,WeatherDisplay:10.37,2013-03-30 16:48:00,
2013-03-30 11:53:00,58.1,30.6,30.27,SSW,202,9.2,9.2,35,0.00,CLR,,0.00,WeatherDisplay:10.37,2013-03-30 16:53:00,
2013-03-30 11:58:00,58.5,30.2,30.27,SSW,202,8.0,8.0,34,0.00,CLR,,0.00,WeatherDisplay:10.37,2013-03-30 16:58:00,
2013-03-30 12:03:00,58.3,29.3,30.26,SSE,158,11.5,11.6,33,0.00,CLR,,0.00,WeatherDisplay:10.37,2013-03-30 17:03:00,
2013-03-30 12:08:00,58.6,31.0,30.26,SSE,158,8.1,8.1,35,0.00,CLR,,0.00,WeatherDisplay:10.37,2013-03-30 17:08:00,
2013-03-30 12:13:00,59.2,31.5,30.26,SE,135,4.6,4.6,35,0.00,CLR,,0.00,WeatherDisplay:10.37,2013-03-30 17:13:00,
2013-03-30 12:18:00,59.4,31.0,30.26,South,180,6.9,6.9,34,0.00,CLR,,0.00,WeatherDisplay:10.37,2013-03-30 17:18:00,
2013-03-30 12:23:00,59.7,31.3,30.25,South,180,7.8,7.8,34,0.00,CLR,,0.00,WeatherDisplay:10.37,2013-03-30 17:23:00,
2013-03-30 12:28:00,59.5,30.4,30.25,SSW,202,9.2,9.2,33,0.00,CLR,,0.00,WeatherDisplay:10.37,2013-03-30 17:28:00,
2013-03-30 12:34:00,59.2,29.3,30.24,SSE,158,3.8,3.8,32,0.00,CLR,,0.00,WeatherDisplay:10.37,2013-03-30 17:34:00,
2013-03-30 12:39:00,59.2,30.1,30.24,SW,225,6.9,11.5,33,0.00,CLR,,0.00,WeatherDisplay:10.37,2013-03-30 17:39:00,
2013-03-30 12:44:00,60.3,31.0,30.24,SSE,158,6.9,6.9,33,0.00,CLR,,0.00,WeatherDisplay:10.37,2013-03-30 17:44:00,
2013-03-30 12:49:00,60.6,30.6,30.24,SSW,202,6.9,7.4,32,0.00,CLR,,0.00,WeatherDisplay:10.37,2013-03-30 17:49:00,
2013-03-30 12:54:00,60.4,30.4,30.24,SSW,202,6.9,7.4,32,0.00,CLR,,0.00,WeatherDisplay:10.37,2013-03-30 17:54:00,
2013-03-30 12:59:00,60.4,30.4,30.24,South,180,4.6,4.6,32,0.00,CLR,,0.00,WeatherDisplay:10.37,2013-03-30 17:59:00,
2013-03-30 13:04:00,60.6,30.6,30.24,South,180,9.2,9.2,32,0.00,CLR,,0.00,WeatherDisplay:10.37,2013-03-30 18:04:00,
2013-03-30 13:10:00,60.6,30.6,30.24,South,180,2.3,8.8,32,0.00,CLR,,0.00,WeatherDisplay:10.37,2013-03-30 18:10:00,
2013-03-30 13:15:00,61.0,30.9,30.23,SSE,158,6.9,7.2,32,0.00,CLR,,0.00,WeatherDisplay:10.37,2013-03-30 18:15:00,
2013-03-30 13:20:00,61.2,29.5,30.22,SW,225,9.2,9.2,30,0.00,CLR,,0.00,WeatherDisplay:10.37,2013-03-30 18:20:00,
2013-03-30 13:25:00,61.2,30.3,30.22,SSW,202,0.0,0.0,31,0.00,CLR,,0.00,WeatherDisplay:10.37,2013-03-30 18:25:00,
2013-03-30 13:30:00,61.2,29.5,30.22,SE,135,6.9,6.9,30,0.00,CLR,,0.00,WeatherDisplay:10.37,2013-03-30 18:30:00,
2013-03-30 13:35:00,61.5,30.6,30.21,SSE,158,4.6,4.6,31,0.00,CLR,,0.00,WeatherDisplay:10.37,2013-03-30 18:35:00,
2013-03-30 13:40:00,61.7,30.7,30.20,SSW,202,4.7,4.7,31,0.00,CLR,,0.00,WeatherDisplay:10.37,2013-03-30 18:40:00,
2013-03-30 13:45:00,61.7,29.9,30.20,SW,225,8.1,8.1,30,0.00,CLR,,0.00,WeatherDisplay:10.37,2013-03-30 18:45:00,
2013-03-30 13:50:00,62.1,29.4,30.20,SSW,202,5.8,5.8,29,0.00,CLR,,0.00,WeatherDisplay:10.37,2013-03-30 18:50:00,
2013-03-30 13:55:00,62.4,29.7,30.20,SSE,158,4.7,4.7,29,0.00,CLR,,0.00,WeatherDisplay:10.37,2013-03-30 18:55:00,
2013-03-30 14:00:00,62.2,30.4,30.20,South,180,8.1,8.1,30,0.00,CLR,,0.00,WeatherDisplay:10.37,2013-03-30 19:00:00,
2013-03-30 14:05:00,62.2,31.2,30.19,SSE,158,8.1,8.1,31,0.00,CLR,,0.00,WeatherDisplay:10.37,2013-03-30 19:05:00,
2013-03-30 14:10:00,62.2,31.2,30.19,SSW,202,5.8,6.0,31,0.00,CLR,,0.00,WeatherDisplay:10.37,2013-03-30 19:10:00,
2013-03-30 14:15:00,62.1,30.2,30.19,South,180,6.9,6.9,30,0.00,CLR,,0.00,WeatherDisplay:10.37,2013-03-30 19:15:00,
2013-03-30 14:20:00,62.1,31.0,30.19,SW,225,10.4,10.4,31,0.00,CLR,,0.00,WeatherDisplay:10.37,2013-03-30 19:20:00,
2013-03-30 14:25:00,61.9,30.9,30.19,SSE,158,4.6,4.6,31,0.00,CLR,,0.00,WeatherDisplay:10.37,2013-03-30 19:25:00,
2013-03-30 14:30:00,62.2,31.2,30.18,South,186,2.0,8.0,31,0.00,CLR,,0.00,WeatherDisplay:10.37,2013-03-30 19:30:00,
2013-03-30 14:35:00,61.9,30.1,30.18,SE,135,3.5,3.5,30,0.00,CLR,,0.00,WeatherDisplay:10.37,2013-03-30 19:35:00,
2013-03-30 14:40:00,61.7,29.9,30.18,South,180,11.5,11.5,30,0.00,CLR,,0.00,WeatherDisplay:10.37,2013-03-30 19:40:00,
2013-03-30 14:45:00,61.5,31.4,30.18,SSE,158,9.2,9.2,32,0.00,CLR,,0.00,WeatherDisplay:10.37,2013-03-30 19:45:00,
2013-03-30 14:50:00,61.2,30.3,30.18,SSW,202,5.8,5.8,31,0.00,CLR,,0.00,WeatherDisplay:10.37,2013-03-30 19:50:00,
2013-03-30 14:55:00,61.0,30.9,30.18,South,180,6.9,6.9,32,0.00,CLR,,0.00,WeatherDisplay:10.37,2013-03-30 19:55:00,
2013-03-30 15:00:00,61.2,31.0,30.17,South,180,7.2,7.2,32,0.00,CLR,,0.00,WeatherDisplay:10.37,2013-03-30 20:00:00,
2013-03-30 15:05:00,61.0,30.1,30.17,South,180,4.6,5.1,31,0.00,CLR,,0.00,WeatherDisplay:10.37,2013-03-30 20:05:00,
2013-03-30 15:10:00,61.0,30.9,30.17,South,180,6.5,6.5,32,0.00,CLR,,0.00,WeatherDisplay:10.37,2013-03-30 20:10:00,
2013-03-30 15:15:00,61.0,30.9,30.17,SE,135,8.1,8.1,32,0.00,CLR,,0.00,WeatherDisplay:10.37,2013-03-30 20:15:00,
2013-03-30 15:21:00,60.6,30.6,30.16,SSW,202,8.1,8.1,32,0.00,CLR,,0.00,WeatherDisplay:10.37,2013-03-30 20:21:00,
2013-03-30 15:26:00,60.3,30.3,30.16,South,180,9.2,9.2,32,0.00,CLR,,0.00,WeatherDisplay:10.37,2013-03-30 20:26:00,
2013-03-30 15:31:00,60.4,31.2,30.16,SSW,202,3.5,3.5,33,0.00,CLR,,0.00,WeatherDisplay:10.37,2013-03-30 20:31:00,
2013-03-30 15:37:00,60.6,30.6,30.15,SSW,202,5.8,5.8,32,0.00,CLR,,0.00,WeatherDisplay:10.37,2013-03-30 20:37:00,
2013-03-30 15:42:00,61.5,31.4,30.15,South,180,10.4,10.4,32,0.00,CLR,,0.00,WeatherDisplay:10.37,2013-03-30 20:42:00,
2013-03-30 15:47:00,62.2,31.2,30.15,South,180,5.8,5.8,31,0.00,CLR,,0.00,WeatherDisplay:10.37,2013-03-30 20:47:00,
2013-03-30 15:52:00,62.6,31.5,30.15,SSE,158,4.6,4.6,31,0.00,CLR,,0.00,WeatherDisplay:10.37,2013-03-30 20:52:00,
2013-03-30 15:57:00,62.4,30.5,30.15,East,90,6.9,6.9,30,0.00,CLR,,0.00,WeatherDisplay:10.37,2013-03-30 20:57:00,
2013-03-30 16:02:00,61.7,29.1,30.14,SSW,202,8.1,8.1,29,0.00,CLR,,0.00,WeatherDisplay:10.37,2013-03-30 21:02:00,
2013-03-30 16:07:00,61.2,28.6,30.14,SSW,202,6.9,6.9,29,0.00,CLR,,0.00,WeatherDisplay:10.37,2013-03-30 21:07:00,
2013-03-30 16:12:00,60.4,28.8,30.14,South,180,9.2,9.6,30,0.00,CLR,,0.00,WeatherDisplay:10.37,2013-03-30 21:12:00,
2013-03-30 16:17:00,59.9,29.9,30.14,SSW,202,11.5,11.5,32,0.00,CLR,,0.00,WeatherDisplay:10.37,2013-03-30 21:17:00,
2013-03-30 16:22:00,59.4,29.5,30.14,SSW,202,5.1,5.1,32,0.00,CLR,,0.00,WeatherDisplay:10.37,2013-03-30 21:22:00,
2013-03-30 16:27:00,58.8,30.5,30.14,SW,225,7.4,7.4,34,0.00,CLR,,0.00,WeatherDisplay:10.37,2013-03-30 21:27:00,
2013-03-30 16:32:00,58.5,30.2,30.14,SSE,158,8.1,8.1,34,0.00,CLR,,0.00,WeatherDisplay:10.37,2013-03-30 21:32:00,
2013-03-30 16:37:00,58.5,30.9,30.13,SW,225,10.4,10.4,35,0.00,CLR,,0.00,WeatherDisplay:10.37,2013-03-30 21:37:00,
2013-03-30 16:42:00,58.1,30.6,30.13,South,180,2.3,3.2,35,0.00,CLR,,0.00,WeatherDisplay:10.37,2013-03-30 21:42:00,
2013-03-30 16:47:00,57.9,30.4,30.13,South,180,8.1,8.1,35,0.00,CLR,,0.00,WeatherDisplay:10.37,2013-03-30 21:47:00,
2013-03-30 16:52:00,57.6,30.8,30.13,South,180,2.3,2.3,36,0.00,CLR,,0.00,WeatherDisplay:10.37,2013-03-30 21:52:00,
2013-03-30 16:57:00,57.2,30.5,30.13,SSW,202,7.4,7.4,36,0.00,CLR,,0.00,WeatherDisplay:10.37,2013-03-30 21:57:00,
2013-03-30 17:02:00,57.0,30.3,30.12,South,180,8.1,8.1,36,0.00,CLR,,0.00,WeatherDisplay:10.37,2013-03-30 22:02:00,
2013-03-30 17:07:00,56.8,30.1,30.12,SSW,202,3.6,3.6,36,0.00,CLR,,0.00,WeatherDisplay:10.37,2013-03-30 22:07:00,
2013-03-30 17:12:00,56.7,30.0,30.12,South,180,8.1,8.1,36,0.00,CLR,,0.00,WeatherDisplay:10.37,2013-03-30 22:12:00,
2013-03-30 17:17:00,56.7,30.0,30.12,SSE,158,4.6,4.6,36,0.00,CLR,,0.00,WeatherDisplay:10.37,2013-03-30 22:17:00,
2013-03-30 17:22:00,56.3,29.7,30.12,South,180,2.3,2.3,36,0.00,CLR,,0.00,WeatherDisplay:10.37,2013-03-30 22:22:00,
2013-03-30 17:27:00,56.1,30.2,30.12,SSW,202,1.6,1.6,37,0.00,CLR,,0.00,WeatherDisplay:10.37,2013-03-30 22:27:00,
2013-03-30 17:33:00,55.8,30.5,30.12,SE,135,9.2,9.2,38,0.00,CLR,,0.00,WeatherDisplay:10.37,2013-03-30 22:33:00,
2013-03-30 17:38:00,55.8,30.5,30.12,South,180,6.0,6.0,38,0.00,CLR,,0.00,WeatherDisplay:10.37,2013-03-30 22:38:00,
2013-03-30 17:43:00,55.6,30.4,30.12,SSW,202,6.9,6.9,38,0.00,CLR,,0.00,WeatherDisplay:10.37,2013-03-30 22:43:00,
2013-03-30 17:48:00,55.4,30.2,30.12,SSW,202,5.8,6.0,38,0.00,CLR,,0.00,WeatherDisplay:10.37,2013-03-30 22:48:00,
2013-03-30 17:53:00,55.0,29.9,30.12,South,180,6.9,6.9,38,0.00,CLR,,0.00,WeatherDisplay:10.37,2013-03-30 22:53:00,
2013-03-30 17:58:00,55.0,30.5,30.12,South,180,0.0,0.0,39,0.00,CLR,,0.00,WeatherDisplay:10.37,2013-03-30 22:58:00,
2013-03-30 18:03:00,54.9,31.0,30.12,SSE,158,3.5,3.6,40,0.00,CLR,,0.00,WeatherDisplay:10.37,2013-03-30 23:03:00,
2013-03-30 18:08:00,54.9,31.0,30.11,South,180,0.0,0.0,40,0.00,CLR,,0.00,WeatherDisplay:10.37,2013-03-30 23:08:00,
2013-03-30 18:13:00,54.5,31.3,30.11,SSW,202,3.5,4.0,41,0.00,CLR,,0.00,WeatherDisplay:10.37,2013-03-30 23:13:00,
2013-03-30 18:18:00,54.5,31.9,30.11,SSW,202,3.5,3.5,42,0.00,CLR,,0.00,WeatherDisplay:10.37,2013-03-30 23:18:00,
2013-03-30 18:23:00,54.3,32.3,30.11,South,180,4.6,4.6,43,0.00,CLR,,0.00,WeatherDisplay:10.37,2013-03-30 23:23:00,
2013-03-30 18:28:00,54.3,32.3,30.11,SSE,158,2.3,2.3,43,0.00,CLR,,0.00,WeatherDisplay:10.37,2013-03-30 23:28:00,
2013-03-30 18:33:00,54.1,32.1,30.11,South,180,4.9,4.9,43,0.00,CLR,,0.00,WeatherDisplay:10.37,2013-03-30 23:33:00,
2013-03-30 18:38:00,54.0,32.0,30.11,SSW,202,8.1,8.1,43,0.00,CLR,,0.00,WeatherDisplay:10.37,2013-03-30 23:38:00,
2013-03-30 18:43:00,54.0,32.5,30.11,South,180,0.0,0.0,44,0.00,CLR,,0.00,WeatherDisplay:10.37,2013-03-30 23:43:00,
2013-03-30 18:48:00,53.8,32.4,30.11,South,180,6.9,6.9,44,0.00,CLR,,0.00,WeatherDisplay:10.37,2013-03-30 23:48:00,
2013-03-30 18:53:00,53.4,32.0,30.11,SSW,202,2.3,2.3,44,0.00,CLR,,0.00,WeatherDisplay:10.37,2013-03-30 23:53:00,
2013-03-30 18:58:00,53.2,32.4,30.11,SSW,202,3.5,4.0,45,0.00,CLR,,0.00,WeatherDisplay:10.37,2013-03-30 23:58:00,
2013-03-30 19:03:00,53.1,32.3,30.11,SSW,202,7.4,7.4,45,0.00,CLR,,0.00,WeatherDisplay:10.37,2013-03-31 00:03:00,
2013-03-30 19:08:00,53.1,32.3,30.11,South,180,6.9,6.9,45,0.00,CLR,,0.00,WeatherDisplay:10.37,2013-03-31 00:08:00,
2013-03-30 19:13:00,52.7,32.5,30.10,South,180,5.8,5.8,46,0.00,CLR,,0.00,WeatherDisplay:10.37,2013-03-31 00:13:00,
2013-03-30 19:18:00,52.5,32.3,30.10,SSW,202,4.6,4.6,46,0.00,CLR,,0.00,WeatherDisplay:10.37,2013-03-31 00:18:00,
2013-03-30 19:23:00,52.5,32.9,30.10,South,180,0.0,0.0,47,0.00,CLR,,0.00,WeatherDisplay:10.37,2013-03-31 00:23:00,
2013-03-30 19:28:00,52.3,32.7,30.10,SSW,202,0.0,0.0,47,0.00,CLR,,0.00,WeatherDisplay:10.37,2013-03-31 00:28:00,
2013-03-30 19:33:00,52.2,32.5,30.10,South,180,6.9,6.9,47,0.00,CLR,,0.00,WeatherDisplay:10.37,2013-03-31 00:33:00,
2013-03-30 19:38:00,52.2,32.5,30.10,South,180,7.4,7.4,47,0.00,CLR,,0.00,WeatherDisplay:10.37,2013-03-31 00:38:00,
2013-03-30 19:43:00,52.2,32.5,30.10,SSW,202,0.0,0.0,47,0.00,CLR,,0.00,WeatherDisplay:10.37,2013-03-31 00:43:00,
2013-03-30 19:48:00,51.8,32.2,30.10,SSW,202,0.0,0.0,47,0.00,CLR,,0.00,WeatherDisplay:10.37,2013-03-31 00:48:00,
2013-03-30 19:53:00,51.8,32.7,30.10,SSW,202,4.6,4.6,48,0.00,CLR,,0.00,WeatherDisplay:10.37,2013-03-31 00:53:00,
2013-03-30 19:58:00,51.6,32.6,30.10,South,180,1.2,0.0,48,0.00,CLR,,0.00,WeatherDisplay:10.37,2013-03-31 00:58:00,
2013-03-30 20:03:00,51.4,32.9,30.10,SW,225,2.3,2.3,49,0.00,CLR,,0.00,WeatherDisplay:10.37,2013-03-31 01:03:00,
2013-03-30 20:08:00,51.4,32.9,30.10,South,180,2.3,2.3,49,0.00,CLR,,0.00,WeatherDisplay:10.37,2013-03-31 01:08:00,
2013-03-30 20:13:00,51.3,32.7,30.09,SSW,202,2.3,2.3,49,0.00,CLR,,0.00,WeatherDisplay:10.37,2013-03-31 01:13:00,
2013-03-30 20:18:00,51.3,33.2,30.10,SW,225,3.5,3.5,50,0.00,CLR,,0.00,WeatherDisplay:10.37,2013-03-31 01:18:00,
2013-03-30 20:23:00,51.3,33.2,30.10,SSW,202,0.0,0.0,50,0.00,CLR,,0.00,WeatherDisplay:10.37,2013-03-31 01:23:00,
2013-03-30 20:28:00,51.1,33.1,30.09,SSW,202,0.0,0.0,50,0.00,CLR,,0.00,WeatherDisplay:10.37,2013-03-31 01:28:00,
2013-03-30 20:33:00,50.9,33.4,30.09,SSW,202,0.0,0.0,51,0.00,CLR,,0.00,WeatherDisplay:10.37,2013-03-31 01:33:00,
2013-03-30 20:38:00,50.9,33.4,30.09,SSW,202,0.0,0.0,51,0.00,CLR,,0.00,WeatherDisplay:10.37,2013-03-31 01:38:00,
2013-03-30 20:43:00,50.7,34.2,30.09,SSW,202,0.0,0.0,53,0.00,CLR,,0.00,WeatherDisplay:10.37,2013-03-31 01:43:00,
2013-03-30 20:48:00,50.5,34.0,30.09,SSW,202,3.8,3.8,53,0.00,CLR,,0.00,WeatherDisplay:10.37,2013-03-31 01:48:00,
2013-03-30 20:53:00,50.4,33.9,30.09,SSW,202,0.0,0.0,53,0.00,CLR,,0.00,WeatherDisplay:10.37,2013-03-31 01:53:00,
2013-03-30 20:58:00,50.4,33.9,30.09,South,180,0.0,0.0,53,0.00,CLR,,0.00,WeatherDisplay:10.37,2013-03-31 01:58:00,
2013-03-30 21:03:00,50.2,33.7,30.09,South,180,0.0,0.0,53,0.00,CLR,,0.00,WeatherDisplay:10.37,2013-03-31 02:03:00,
2013-03-30 21:08:00,50.2,34.2,30.09,South,180,3.8,3.8,54,0.00,CLR,,0.00,WeatherDisplay:10.37,2013-03-31 02:08:00,
2013-03-30 21:13:00,50.2,34.6,30.09,South,180,0.0,0.0,55,0.00,CLR,,0.00,WeatherDisplay:10.37,2013-03-31 02:13:00,
2013-03-30 21:18:00,50.2,34.6,30.09,South,180,0.0,0.0,55,0.00,CLR,,0.00,WeatherDisplay:10.37,2013-03-31 02:18:00,
2013-03-30 21:23:00,50.0,34.5,30.09,South,180,1.2,1.2,55,0.00,CLR,,0.00,WeatherDisplay:10.37,2013-03-31 02:23:00,
2013-03-30 21:28:00,50.2,34.6,30.09,South,180,0.0,0.0,55,0.00,CLR,,0.00,WeatherDisplay:10.37,2013-03-31 02:28:00,
2013-03-30 21:33:00,49.8,34.3,30.08,South,180,0.0,0.0,55,0.00,CLR,,0.00,WeatherDisplay:10.37,2013-03-31 02:33:00,
2013-03-30 21:38:00,49.6,34.6,30.08,South,180,1.6,1.6,56,0.00,CLR,,0.00,WeatherDisplay:10.37,2013-03-31 02:38:00,
2013-03-30 21:43:00,49.6,34.6,30.08,South,180,3.5,3.5,56,0.00,CLR,,0.00,WeatherDisplay:10.37,2013-03-31 02:43:00,
2013-03-30 21:49:00,49.5,34.8,30.08,South,180,0.0,0.0,57,0.00,CLR,,0.00,WeatherDisplay:10.37,2013-03-31 02:49:00,
2013-03-30 21:54:00,49.5,34.8,30.08,South,180,0.0,0.0,57,0.00,CLR,,0.00,WeatherDisplay:10.37,2013-03-31 02:54:00,
2013-03-30 21:59:00,49.5,34.8,30.08,South,180,0.0,0.0,57,0.00,CLR,,0.00,WeatherDisplay:10.37,2013-03-31 02:59:00,
2013-03-30 22:04:00,49.3,35.1,30.08,SSW,202,0.0,0.0,58,0.00,CLR,,0.00,WeatherDisplay:10.37,2013-03-31 03:04:00,
2013-03-30 22:09:00,49.3,35.1,30.08,South,180,0.0,0.0,58,0.00,CLR,,0.00,WeatherDisplay:10.37,2013-03-31 03:09:00,
2013-03-30 22:14:00,49.3,35.1,30.08,South,180,0.0,0.0,58,0.00,CLR,,0.00,WeatherDisplay:10.37,2013-03-31 03:14:00,
2013-03-30 22:19:00,49.1,34.9,30.07,South,180,0.0,0.0,58,0.00,CLR,,0.00,WeatherDisplay:10.37,2013-03-31 03:19:00,
2013-03-30 22:24:00,49.1,35.8,30.07,South,180,2.3,2.3,60,0.00,CLR,,0.00,WeatherDisplay:10.37,2013-03-31 03:24:00,
2013-03-30 22:29:00,49.1,35.4,30.07,South,180,0.0,0.0,59,0.00,CLR,,0.00,WeatherDisplay:10.37,2013-03-31 03:29:00,
2013-03-30 22:34:00,48.9,35.2,30.06,South,180,0.0,0.0,59,0.00,CLR,,0.00,WeatherDisplay:10.37,2013-03-31 03:34:00,
2013-03-30 22:39:00,48.9,35.2,30.06,SSW,202,4.6,4.6,59,0.00,CLR,,0.00,WeatherDisplay:10.37,2013-03-31 03:39:00,
2013-03-30 22:44:00,48.7,35.0,30.06,South,180,1.2,1.2,59,0.00,CLR,,0.00,WeatherDisplay:10.37,2013-03-31 03:44:00,
2013-03-30 22:49:00,48.9,36.1,30.06,South,180,1.2,1.2,61,0.00,CLR,,0.00,WeatherDisplay:10.37,2013-03-31 03:49:00,
2013-03-30 22:54:00,48.9,36.1,30.06,SSW,202,2.3,2.3,61,0.00,CLR,,0.00,WeatherDisplay:10.37,2013-03-31 03:54:00,
2013-03-30 22:59:00,48.9,36.1,30.06,SSW,202,0.0,0.0,61,0.00,CLR,,0.00,WeatherDisplay:10.37,2013-03-31 03:59:00,
2013-03-30 23:00:00,48.7,35.9,30.06,South,180,0.0,0.0,61,0.00,CLR,,0.00,WeatherDisplay:10.37,2013-03-31 04:00:00,
2013-03-30 23:01:00,48.7,35.9,30.05,South,180,0.0,0.0,61,0.00,CLR,,0.00,WeatherDisplay:10.37,2013-03-31 04:01:00,
2013-03-30 23:04:00,48.7,35.9,30.05,South,180,0.0,0.0,61,0.00,CLR,,0.00,WeatherDisplay:10.37,2013-03-31 04:04:00,
2013-03-30 23:09:00,48.7,35.9,30.05,SSW,202,2.5,2.5,61,0.00,CLR,,0.00,WeatherDisplay:10.37,2013-03-31 04:09:00,
2013-03-30 23:14:00,48.7,35.9,30.05,South,180,0.0,0.0,61,0.00,CLR,,0.00,WeatherDisplay:10.37,2013-03-31 04:14:00,
2013-03-30 23:19:00,48.6,35.7,30.05,South,180,0.0,0.0,61,0.00,CLR,,0.00,WeatherDisplay:10.37,2013-03-31 04:19:00,
2013-03-30 23:24:00,48.4,35.5,30.05,South,180,0.0,0.0,61,0.00,CLR,,0.00,WeatherDisplay:10.37,2013-03-31 04:24:00,
2013-03-30 23:29:00,47.8,35.0,30.04,South,180,0.0,0.0,61,0.00,CLR,,0.00,WeatherDisplay:10.37,2013-03-31 04:29:00,
2013-03-30 23:34:00,47.7,34.9,30.04,South,180,0.0,0.0,61,0.00,CLR,,0.00,WeatherDisplay:10.37,2013-03-31 04:34:00,
2013-03-30 23:39:00,47.3,34.9,30.04,South,180,0.0,0.0,62,0.00,CLR,,0.00,WeatherDisplay:10.37,2013-03-31 04:39:00,
2013-03-30 23:44:00,47.1,34.8,30.04,South,180,0.0,0.0,62,0.00,CLR,,0.00,WeatherDisplay:10.37,2013-03-31 04:44:00,
2013-03-30 23:49:00,47.1,35.2,30.04,South,180,1.2,1.2,63,0.00,CLR,,0.00,WeatherDisplay:10.37,2013-03-31 04:49:00,
2013-03-30 23:54:00,46.9,35.0,30.03,South,180,0.0,0.0,63,0.00,CLR,,0.00,WeatherDisplay:10.37,2013-03-31 04:54:00,
2013-03-30 23:59:00,46.9,35.4,30.03,South,180,0.0,0.0,64,0.00,CLR,,0.00,WeatherDisplay:10.37,2013-03-31 04:59:00,